AXM1821 VTSP-WMKP
Flight info
| Callsign | AXM1821 |
|---|---|
| Flight time | 0h 41m |
| Altitude | 25000 |
| Route | REBED1A REBED B579 VPL W525 KAPKO OMBOK1F |
| Aircraft | A320/M-SDE3FGHIRWY/LB1 |
Departure
| Time | 2026-05-08 12:16 |
|---|---|
| Airport | Phuket International Airport (VTSP) |
Arrival
| Time | 2026-05-08 12:57 |
|---|---|
| Airport | Penang International Airport (WMKP) |
| Time | Latitude | Longitude | Altitude | Speed | Heading |
|---|---|---|---|---|---|
| 2026-05-08 12:06 | 8.10714 | 98.30503 | 27 ft | 0 kts | 105° |
| 2026-05-08 12:08 | 8.10715 | 98.30500 | 27 ft | 3 kts | 105° |
| 2026-05-08 12:08 | 8.10721 | 98.30474 | 27 ft | 4 kts | 96° |
| 2026-05-08 12:08 | 8.10721 | 98.30448 | 27 ft | 4 kts | 75° |
| 2026-05-08 12:09 | 8.10715 | 98.30431 | 27 ft | 0 kts | 60° |
| 2026-05-08 12:11 | 8.10738 | 98.30430 | 27 ft | 6 kts | 343° |
| 2026-05-08 12:12 | 8.10746 | 98.30392 | 27 ft | 9 kts | 271° |
| 2026-05-08 12:12 | 8.10792 | 98.30351 | 27 ft | 9 kts | 7° |
| 2026-05-08 12:12 | 8.10851 | 98.30366 | 27 ft | 8 kts | 14° |
| 2026-05-08 12:12 | 8.10921 | 98.30384 | 27 ft | 13 kts | 15° |
| 2026-05-08 12:13 | 8.11013 | 98.30400 | 27 ft | 14 kts | 344° |
| 2026-05-08 12:13 | 8.11086 | 98.30349 | 27 ft | 9 kts | 352° |
| 2026-05-08 12:13 | 8.11090 | 98.30349 | 27 ft | 0 kts | 354° |
| 2026-05-08 12:14 | 8.11117 | 98.30347 | 27 ft | 8 kts | 356° |
| 2026-05-08 12:14 | 8.11185 | 98.30352 | 27 ft | 9 kts | 30° |
| 2026-05-08 12:14 | 8.11202 | 98.30407 | 27 ft | 7 kts | 83° |
| 2026-05-08 12:14 | 8.11204 | 98.30424 | 27 ft | 0 kts | 84° |
| 2026-05-08 12:15 | 8.11215 | 98.30547 | 28 ft | 52 kts | 84° |
| 2026-05-08 12:15 | 8.11274 | 98.31155 | 30 ft | 119 kts | 85° |
| 2026-05-08 12:15 | 8.11368 | 98.32168 | 70 ft | 168 kts | 84° |
| 2026-05-08 12:15 | 8.11478 | 98.33352 | 643 ft | 167 kts | 84° |
| 2026-05-08 12:16 | 8.11584 | 98.34515 | 1278 ft | 167 kts | 84° |
| 2026-05-08 12:16 | 8.11699 | 98.35740 | 1637 ft | 186 kts | 84° |
| 2026-05-08 12:16 | 8.11829 | 98.37117 | 1910 ft | 208 kts | 84° |
| 2026-05-08 12:16 | 8.11973 | 98.38642 | 2207 ft | 227 kts | 84° |
| 2026-05-08 12:17 | 8.12075 | 98.39731 | 2410 ft | 242 kts | 84° |
| 2026-05-08 12:17 | 8.12295 | 98.42074 | 3110 ft | 261 kts | 85° |
| 2026-05-08 12:17 | 8.12410 | 98.43291 | 3617 ft | 264 kts | 85° |
| 2026-05-08 12:17 | 8.12583 | 98.45139 | 4476 ft | 265 kts | 85° |
| 2026-05-08 12:18 | 8.12757 | 98.47005 | 5293 ft | 268 kts | 85° |
| 2026-05-08 12:18 | 8.12933 | 98.48891 | 6097 ft | 271 kts | 85° |
| 2026-05-08 12:18 | 8.13112 | 98.50794 | 6863 ft | 274 kts | 85° |
| 2026-05-08 12:18 | 8.13295 | 98.52720 | 7620 ft | 277 kts | 85° |
| 2026-05-08 12:19 | 8.13479 | 98.54672 | 8347 ft | 281 kts | 85° |
| 2026-05-08 12:19 | 8.13504 | 98.56650 | 9081 ft | 284 kts | 99° |
| 2026-05-08 12:19 | 8.12866 | 98.58547 | 9795 ft | 288 kts | 120° |
| 2026-05-08 12:19 | 8.11597 | 98.60116 | 10244 ft | 303 kts | 140° |
| 2026-05-08 12:20 | 8.09708 | 98.61146 | 10643 ft | 318 kts | 163° |
| 2026-05-08 12:20 | 8.07492 | 98.61422 | 11237 ft | 325 kts | 176° |
| 2026-05-08 12:20 | 8.05217 | 98.61502 | 11901 ft | 328 kts | 176° |
| 2026-05-08 12:20 | 8.02931 | 98.61580 | 12563 ft | 331 kts | 176° |
| 2026-05-08 12:21 | 8.00620 | 98.61660 | 13214 ft | 334 kts | 176° |
| 2026-05-08 12:21 | 7.98287 | 98.61745 | 13825 ft | 337 kts | 176° |
| 2026-05-08 12:21 | 7.95937 | 98.61833 | 14380 ft | 340 kts | 176° |
| 2026-05-08 12:21 | 7.93564 | 98.61920 | 14938 ft | 343 kts | 176° |
| 2026-05-08 12:22 | 7.91171 | 98.62005 | 15441 ft | 348 kts | 176° |
| 2026-05-08 12:22 | 7.88693 | 98.62095 | 15635 ft | 362 kts | 176° |
| 2026-05-08 12:22 | 7.86150 | 98.62189 | 16071 ft | 368 kts | 176° |
| 2026-05-08 12:22 | 7.83585 | 98.62283 | 16573 ft | 371 kts | 176° |
| 2026-05-08 12:23 | 7.80993 | 98.62377 | 17088 ft | 374 kts | 176° |
| 2026-05-08 12:23 | 7.78381 | 98.62472 | 17600 ft | 377 kts | 176° |
| 2026-05-08 12:23 | 7.75752 | 98.62610 | 18099 ft | 379 kts | 171° |
| 2026-05-08 12:23 | 7.73172 | 98.63192 | 18523 ft | 380 kts | 159° |
| 2026-05-08 12:24 | 7.70769 | 98.64307 | 18953 ft | 381 kts | 147° |
| 2026-05-08 12:24 | 7.68653 | 98.65870 | 19379 ft | 383 kts | 139° |
| 2026-05-08 12:24 | 7.66581 | 98.67587 | 19814 ft | 386 kts | 140° |
| 2026-05-08 12:24 | 7.64498 | 98.69302 | 20250 ft | 388 kts | 140° |
| 2026-05-08 12:25 | 7.62393 | 98.71029 | 20686 ft | 391 kts | 140° |
| 2026-05-08 12:25 | 7.60275 | 98.72765 | 21107 ft | 394 kts | 140° |
| 2026-05-08 12:25 | 7.58136 | 98.74520 | 21515 ft | 398 kts | 140° |
| 2026-05-08 12:25 | 7.55985 | 98.76289 | 21943 ft | 400 kts | 140° |
| 2026-05-08 12:26 | 7.53823 | 98.78067 | 22370 ft | 403 kts | 140° |
| 2026-05-08 12:26 | 7.51640 | 98.79860 | 22785 ft | 406 kts | 140° |
| 2026-05-08 12:26 | 7.49439 | 98.81667 | 23203 ft | 408 kts | 139° |
| 2026-05-08 12:26 | 7.47230 | 98.83478 | 23574 ft | 411 kts | 139° |
| 2026-05-08 12:27 | 7.45009 | 98.85302 | 23903 ft | 413 kts | 139° |
| 2026-05-08 12:27 | 7.42777 | 98.87132 | 24231 ft | 415 kts | 139° |
| 2026-05-08 12:27 | 7.40533 | 98.88971 | 24553 ft | 417 kts | 139° |
| 2026-05-08 12:27 | 7.38275 | 98.90821 | 24776 ft | 419 kts | 139° |
| 2026-05-08 12:28 | 7.36030 | 98.92662 | 24837 ft | 410 kts | 139° |
| 2026-05-08 12:28 | 7.33834 | 98.94464 | 24851 ft | 403 kts | 139° |
| 2026-05-08 12:28 | 7.31668 | 98.96241 | 24852 ft | 401 kts | 139° |
| 2026-05-08 12:28 | 7.29509 | 98.98011 | 24854 ft | 400 kts | 139° |
| 2026-05-08 12:29 | 7.27348 | 98.99783 | 24854 ft | 400 kts | 139° |
| 2026-05-08 12:29 | 7.25192 | 99.01548 | 24854 ft | 400 kts | 139° |
| 2026-05-08 12:29 | 7.23033 | 99.03314 | 24854 ft | 400 kts | 139° |
| 2026-05-08 12:29 | 7.20872 | 99.05081 | 24854 ft | 400 kts | 139° |
| 2026-05-08 12:30 | 7.18715 | 99.06844 | 24852 ft | 400 kts | 140° |
| 2026-05-08 12:30 | 7.16583 | 99.08588 | 24852 ft | 400 kts | 139° |
| 2026-05-08 12:30 | 7.14424 | 99.10356 | 24845 ft | 400 kts | 139° |
| 2026-05-08 12:30 | 7.12268 | 99.12125 | 24849 ft | 400 kts | 139° |
| 2026-05-08 12:31 | 7.10109 | 99.13896 | 24848 ft | 400 kts | 139° |
| 2026-05-08 12:31 | 7.07949 | 99.15664 | 24848 ft | 400 kts | 139° |
| 2026-05-08 12:31 | 7.05788 | 99.17432 | 24848 ft | 400 kts | 139° |
| 2026-05-08 12:31 | 7.03631 | 99.19197 | 24847 ft | 400 kts | 139° |
| 2026-05-08 12:32 | 7.01475 | 99.20964 | 24848 ft | 400 kts | 139° |
| 2026-05-08 12:32 | 6.99312 | 99.22733 | 24847 ft | 400 kts | 139° |
| 2026-05-08 12:32 | 6.97122 | 99.24521 | 24848 ft | 400 kts | 139° |
| 2026-05-08 12:32 | 6.94982 | 99.26267 | 24850 ft | 400 kts | 139° |
| 2026-05-08 12:33 | 6.92816 | 99.28039 | 24852 ft | 400 kts | 139° |
| 2026-05-08 12:33 | 6.90659 | 99.29805 | 24853 ft | 400 kts | 139° |
| 2026-05-08 12:33 | 6.88497 | 99.31575 | 24849 ft | 400 kts | 139° |
| 2026-05-08 12:33 | 6.86336 | 99.33342 | 24849 ft | 400 kts | 139° |
| 2026-05-08 12:34 | 6.84174 | 99.35109 | 24849 ft | 400 kts | 139° |
| 2026-05-08 12:34 | 6.82016 | 99.36876 | 24849 ft | 400 kts | 139° |
| 2026-05-08 12:34 | 6.79858 | 99.38640 | 24848 ft | 400 kts | 139° |
| 2026-05-08 12:34 | 6.77701 | 99.40403 | 24848 ft | 400 kts | 139° |
| 2026-05-08 12:35 | 6.75544 | 99.42165 | 24844 ft | 400 kts | 139° |
| 2026-05-08 12:35 | 6.73379 | 99.43931 | 24852 ft | 399 kts | 139° |
| 2026-05-08 12:35 | 6.71223 | 99.45692 | 24850 ft | 399 kts | 139° |
| 2026-05-08 12:35 | 6.69071 | 99.47450 | 24850 ft | 399 kts | 139° |
| 2026-05-08 12:36 | 6.66917 | 99.49209 | 24848 ft | 399 kts | 139° |
| 2026-05-08 12:36 | 6.64760 | 99.50971 | 24846 ft | 399 kts | 139° |
| 2026-05-08 12:36 | 6.62604 | 99.52733 | 24845 ft | 399 kts | 139° |
| 2026-05-08 12:36 | 6.60449 | 99.54495 | 24838 ft | 399 kts | 139° |
| 2026-05-08 12:37 | 6.58292 | 99.56255 | 24838 ft | 399 kts | 139° |
| 2026-05-08 12:37 | 6.56135 | 99.58014 | 24837 ft | 399 kts | 139° |
| 2026-05-08 12:37 | 6.53981 | 99.59770 | 24835 ft | 399 kts | 139° |
| 2026-05-08 12:37 | 6.51851 | 99.61507 | 24833 ft | 399 kts | 139° |
| 2026-05-08 12:38 | 6.49694 | 99.63266 | 24831 ft | 399 kts | 139° |
| 2026-05-08 12:38 | 6.47511 | 99.65047 | 24830 ft | 399 kts | 139° |
| 2026-05-08 12:38 | 6.45376 | 99.66778 | 24828 ft | 399 kts | 140° |
| 2026-05-08 12:38 | 6.43168 | 99.68528 | 24828 ft | 399 kts | 140° |
| 2026-05-08 12:39 | 6.40977 | 99.70240 | 24828 ft | 400 kts | 140° |
| 2026-05-08 12:39 | 6.38807 | 99.71926 | 24827 ft | 400 kts | 140° |
| 2026-05-08 12:39 | 6.36602 | 99.73638 | 24829 ft | 400 kts | 141° |
| 2026-05-08 12:39 | 6.34244 | 99.75120 | 24834 ft | 402 kts | 152° |
| 2026-05-08 12:40 | 6.31716 | 99.76330 | 24857 ft | 402 kts | 152° |
| 2026-05-08 12:40 | 6.29189 | 99.77538 | 24853 ft | 402 kts | 152° |
| 2026-05-08 12:40 | 6.26628 | 99.78771 | 24856 ft | 414 kts | 152° |
| 2026-05-08 12:40 | 6.24018 | 99.80029 | 24854 ft | 418 kts | 152° |
| 2026-05-08 12:41 | 6.21389 | 99.81292 | 24854 ft | 419 kts | 152° |
| 2026-05-08 12:41 | 6.18758 | 99.82557 | 24854 ft | 419 kts | 152° |
| 2026-05-08 12:41 | 6.16123 | 99.83823 | 24855 ft | 420 kts | 152° |
| 2026-05-08 12:41 | 6.13482 | 99.85091 | 24855 ft | 421 kts | 153° |
| 2026-05-08 12:42 | 6.10839 | 99.86359 | 24857 ft | 421 kts | 153° |
| 2026-05-08 12:42 | 6.08196 | 99.87628 | 24854 ft | 421 kts | 152° |
| 2026-05-08 12:42 | 6.05581 | 99.88882 | 24696 ft | 412 kts | 152° |
| 2026-05-08 12:42 | 6.03031 | 99.90105 | 24041 ft | 402 kts | 152° |
| 2026-05-08 12:43 | 6.00522 | 99.91309 | 23243 ft | 397 kts | 152° |
| 2026-05-08 12:43 | 5.98075 | 99.92483 | 22396 ft | 391 kts | 152° |
| 2026-05-08 12:43 | 5.95636 | 99.93653 | 21582 ft | 385 kts | 152° |
| 2026-05-08 12:43 | 5.93234 | 99.94804 | 20773 ft | 380 kts | 152° |
| 2026-05-08 12:44 | 5.90866 | 99.95937 | 19980 ft | 375 kts | 152° |
| 2026-05-08 12:44 | 5.88521 | 99.97060 | 19198 ft | 370 kts | 152° |
| 2026-05-08 12:44 | 5.86207 | 99.98168 | 18471 ft | 366 kts | 152° |
| 2026-05-08 12:44 | 5.83924 | 99.99264 | 17670 ft | 362 kts | 152° |
| 2026-05-08 12:45 | 5.81660 | 100.00351 | 16848 ft | 358 kts | 153° |
| 2026-05-08 12:45 | 5.79428 | 100.01422 | 16061 ft | 354 kts | 153° |
| 2026-05-08 12:45 | 5.77218 | 100.02478 | 15302 ft | 350 kts | 153° |
| 2026-05-08 12:45 | 5.75044 | 100.03553 | 14560 ft | 345 kts | 147° |
| 2026-05-08 12:46 | 5.73167 | 100.05015 | 13855 ft | 339 kts | 133° |
| 2026-05-08 12:46 | 5.71764 | 100.06872 | 13305 ft | 328 kts | 120° |
| 2026-05-08 12:46 | 5.70633 | 100.08802 | 12894 ft | 314 kts | 120° |
| 2026-05-08 12:46 | 5.69536 | 100.10645 | 12514 ft | 301 kts | 120° |
| 2026-05-08 12:47 | 5.68481 | 100.12414 | 12145 ft | 290 kts | 120° |
| 2026-05-08 12:47 | 5.67462 | 100.14121 | 11769 ft | 279 kts | 120° |
| 2026-05-08 12:47 | 5.66484 | 100.15755 | 11416 ft | 274 kts | 120° |
| 2026-05-08 12:47 | 5.65496 | 100.17406 | 11062 ft | 271 kts | 120° |
| 2026-05-08 12:48 | 5.64531 | 100.19021 | 10761 ft | 268 kts | 120° |
| 2026-05-08 12:48 | 5.63579 | 100.20621 | 10477 ft | 271 kts | 120° |
| 2026-05-08 12:48 | 5.62614 | 100.22244 | 10124 ft | 271 kts | 120° |
| 2026-05-08 12:48 | 5.61648 | 100.23870 | 9766 ft | 272 kts | 120° |
| 2026-05-08 12:49 | 5.60675 | 100.25505 | 9366 ft | 273 kts | 120° |
| 2026-05-08 12:49 | 5.59701 | 100.27137 | 8985 ft | 273 kts | 120° |
| 2026-05-08 12:49 | 5.58730 | 100.28764 | 8588 ft | 272 kts | 120° |
| 2026-05-08 12:49 | 5.57758 | 100.30393 | 8201 ft | 272 kts | 120° |
| 2026-05-08 12:50 | 5.56786 | 100.32023 | 7789 ft | 271 kts | 120° |
| 2026-05-08 12:50 | 5.55834 | 100.33623 | 7395 ft | 261 kts | 120° |
| 2026-05-08 12:50 | 5.54859 | 100.35119 | 7012 ft | 252 kts | 130° |
| 2026-05-08 12:50 | 5.53696 | 100.36393 | 6628 ft | 245 kts | 132° |
| 2026-05-08 12:51 | 5.52553 | 100.37636 | 6240 ft | 239 kts | 132° |
| 2026-05-08 12:51 | 5.50344 | 100.40044 | 5458 ft | 229 kts | 133° |
| 2026-05-08 12:51 | 5.49276 | 100.41206 | 5081 ft | 224 kts | 133° |
| 2026-05-08 12:52 | 5.48178 | 100.42283 | 4716 ft | 219 kts | 150° |
| 2026-05-08 12:52 | 5.45487 | 100.42042 | 4009 ft | 203 kts | 224° |
| 2026-05-08 12:52 | 5.44462 | 100.41061 | 3661 ft | 203 kts | 224° |
| 2026-05-08 12:53 | 5.43426 | 100.40108 | 3339 ft | 201 kts | 223° |
| 2026-05-08 12:53 | 5.42403 | 100.39179 | 2979 ft | 196 kts | 223° |
| 2026-05-08 12:53 | 5.41418 | 100.38286 | 2618 ft | 190 kts | 223° |
| 2026-05-08 12:53 | 5.40442 | 100.37400 | 2327 ft | 182 kts | 222° |
| 2026-05-08 12:54 | 5.39532 | 100.36579 | 2112 ft | 170 kts | 222° |
| 2026-05-08 12:54 | 5.38724 | 100.35850 | 1939 ft | 154 kts | 221° |
| 2026-05-08 12:54 | 5.37954 | 100.35154 | 1750 ft | 146 kts | 221° |
| 2026-05-08 12:54 | 5.37211 | 100.34481 | 1576 ft | 142 kts | 221° |
| 2026-05-08 12:55 | 5.36481 | 100.33818 | 1387 ft | 142 kts | 220° |
| 2026-05-08 12:55 | 5.35753 | 100.33158 | 1222 ft | 141 kts | 221° |
| 2026-05-08 12:55 | 5.35025 | 100.32499 | 1058 ft | 141 kts | 221° |
| 2026-05-08 12:55 | 5.34295 | 100.31839 | 892 ft | 141 kts | 221° |
| 2026-05-08 12:56 | 5.33564 | 100.31177 | 741 ft | 143 kts | 221° |
| 2026-05-08 12:56 | 5.32871 | 100.30544 | 562 ft | 142 kts | 221° |
| 2026-05-08 12:56 | 5.32133 | 100.29890 | 373 ft | 142 kts | 222° |
| 2026-05-08 12:56 | 5.31412 | 100.29228 | 196 ft | 140 kts | 221° |
| 2026-05-08 12:57 | 5.30700 | 100.28581 | 45 ft | 137 kts | 223° |
| 2026-05-08 12:57 | 5.30072 | 100.28008 | 28 ft | 98 kts | 222° |
| 2026-05-08 12:57 | 5.29694 | 100.27664 | 24 ft | 49 kts | 222° |
| 2026-05-08 12:57 | 5.29474 | 100.27465 | 23 ft | 42 kts | 222° |
| 2026-05-08 12:58 | 5.29249 | 100.27261 | 24 ft | 45 kts | 222° |
| 2026-05-08 12:58 | 5.29064 | 100.27093 | 28 ft | 15 kts | 224° |
| 2026-05-08 12:58 | 5.29086 | 100.27020 | 27 ft | 13 kts | 314° |
| 2026-05-08 12:58 | 5.29148 | 100.26953 | 24 ft | 13 kts | 312° |
| 2026-05-08 12:59 | 5.29210 | 100.26885 | 23 ft | 13 kts | 312° |
| 2026-05-08 12:59 | 5.29263 | 100.26811 | 23 ft | 12 kts | 276° |
| 2026-05-08 12:59 | 5.29211 | 100.26749 | 23 ft | 6 kts | 221° |
| 2026-05-08 12:59 | 5.29203 | 100.26729 | 23 ft | 7 kts | 268° |
| 2026-05-08 13:00 | 5.29229 | 100.26696 | 24 ft | 5 kts | 310° |
| 2026-05-08 13:00 | 5.29249 | 100.26673 | 23 ft | 0 kts | 312° |
| 2026-05-08 13:10 | 5.29242 | 100.26681 | 24 ft | 4 kts | 313° |
| 2026-05-08 13:11 | 5.29222 | 100.26699 | 25 ft | 4 kts | 321° |
| 2026-05-08 13:11 | 5.29200 | 100.26715 | 25 ft | 4 kts | 339° |
| 2026-05-08 13:11 | 5.29177 | 100.26718 | 25 ft | 4 kts | 32° |
| 2026-05-08 13:11 | 5.29170 | 100.26712 | 24 ft | 0 kts | 41° |
| 2026-05-08 13:13 | 5.29190 | 100.26730 | 11 ft | 8 kts | 41° |
| 2026-05-08 13:14 | 5.29229 | 100.26764 | 23 ft | 7 kts | 41° |
| 2026-05-08 13:14 | 5.29262 | 100.26796 | 23 ft | 8 kts | 54° |
| 2026-05-08 13:14 | 5.29247 | 100.26844 | 24 ft | 7 kts | 129° |
| 2026-05-08 13:14 | 5.29214 | 100.26882 | 23 ft | 7 kts | 131° |
| 2026-05-08 13:15 | 5.29191 | 100.26930 | 23 ft | 10 kts | 86° |
| 2026-05-08 13:15 | 5.29243 | 100.26994 | 23 ft | 14 kts | 41° |
| 2026-05-08 13:15 | 5.29323 | 100.27065 | 23 ft | 16 kts | 41° |
| 2026-05-08 13:15 | 5.29409 | 100.27145 | 23 ft | 18 kts | 43° |
| 2026-05-08 13:16 | 5.29503 | 100.27232 | 25 ft | 19 kts | 41° |
| 2026-05-08 13:16 | 5.29608 | 100.27323 | 24 ft | 21 kts | 41° |
| 2026-05-08 13:16 | 5.29716 | 100.27423 | 23 ft | 22 kts | 42° |
| 2026-05-08 13:16 | 5.29831 | 100.27529 | 23 ft | 23 kts | 42° |
| 2026-05-08 13:17 | 5.29952 | 100.27638 | 24 ft | 24 kts | 42° |
| 2026-05-08 13:17 | 5.30075 | 100.27754 | 23 ft | 25 kts | 44° |
| 2026-05-08 13:17 | 5.30201 | 100.27878 | 23 ft | 26 kts | 45° |
| 2026-05-08 13:17 | 5.30329 | 100.28006 | 23 ft | 27 kts | 45° |
| 2026-05-08 13:18 | 5.30466 | 100.28135 | 22 ft | 27 kts | 42° |
| 2026-05-08 13:18 | 5.30607 | 100.28264 | 22 ft | 28 kts | 43° |
| 2026-05-08 13:18 | 5.30750 | 100.28396 | 23 ft | 28 kts | 41° |
| 2026-05-08 13:18 | 5.30879 | 100.28513 | 23 ft | 19 kts | 44° |
| 2026-05-08 13:19 | 5.30901 | 100.28605 | 23 ft | 9 kts | 108° |
| 2026-05-08 13:19 | 5.30899 | 100.28610 | 26 ft | 0 kts | 112° |
| 2026-05-08 13:19 | 5.30897 | 100.28614 | 25 ft | 2 kts | 114° |
| 2026-05-08 13:20 | 5.30882 | 100.28635 | 24 ft | 5 kts | 131° |
| 2026-05-08 13:20 | 5.30850 | 100.28665 | 25 ft | 8 kts | 146° |
| 2026-05-08 13:20 | 5.30784 | 100.28655 | 28 ft | 13 kts | 218° |
| 2026-05-08 13:20 | 5.30762 | 100.28636 | 25 ft | 0 kts | 221° |
| 2026-05-08 13:21 | 5.30695 | 100.28575 | 26 ft | 45 kts | 222° |
| 2026-05-08 13:21 | 5.30278 | 100.28196 | 24 ft | 113 kts | 222° |
| 2026-05-08 13:21 | 5.29551 | 100.27536 | 24 ft | 166 kts | 222° |
| 2026-05-08 13:21 | 5.28636 | 100.26708 | 425 ft | 176 kts | 220° |
| 2026-05-08 13:22 | 5.27721 | 100.25892 | 1064 ft | 176 kts | 220° |
| 2026-05-08 13:22 | 5.26715 | 100.25190 | 1564 ft | 187 kts | 200° |
| 2026-05-08 13:22 | 5.25364 | 100.25057 | 1805 ft | 210 kts | 169° |
| 2026-05-08 13:22 | 5.24017 | 100.25755 | 2103 ft | 234 kts | 134° |
| 2026-05-08 13:23 | 5.23278 | 100.27246 | 2571 ft | 252 kts | 98° |
| 2026-05-08 13:23 | 5.23577 | 100.29014 | 3059 ft | 269 kts | 63° |
| 2026-05-08 13:23 | 5.24617 | 100.30597 | 3829 ft | 274 kts | 51° |
| 2026-05-08 13:23 | 5.25863 | 100.32051 | 4653 ft | 277 kts | 47° |
| 2026-05-08 13:24 | 5.27180 | 100.33467 | 5457 ft | 279 kts | 46° |
| 2026-05-08 13:24 | 5.28512 | 100.34894 | 6281 ft | 281 kts | 47° |
| 2026-05-08 13:24 | 5.29753 | 100.36415 | 7025 ft | 283 kts | 61° |
| 2026-05-08 13:24 | 5.30381 | 100.38281 | 7782 ft | 284 kts | 79° |
| 2026-05-08 13:25 | 5.30758 | 100.40230 | 8562 ft | 286 kts | 80° |
| 2026-05-08 13:25 | 5.31118 | 100.42204 | 9316 ft | 289 kts | 80° |
| 2026-05-08 13:25 | 5.31475 | 100.44195 | 10041 ft | 291 kts | 80° |
| 2026-05-08 13:25 | 5.31840 | 100.46233 | 10436 ft | 307 kts | 80° |
| 2026-05-08 13:26 | 5.32238 | 100.48424 | 10582 ft | 330 kts | 80° |
| 2026-05-08 13:26 | 5.32661 | 100.50747 | 10926 ft | 343 kts | 80° |
| 2026-05-08 13:26 | 5.33096 | 100.53123 | 11505 ft | 348 kts | 80° |
| 2026-05-08 13:26 | 5.33537 | 100.55524 | 12130 ft | 352 kts | 80° |
| 2026-05-08 13:27 | 5.33987 | 100.57951 | 12784 ft | 355 kts | 79° |
| 2026-05-08 13:27 | 5.34436 | 100.60372 | 13413 ft | 358 kts | 79° |
| 2026-05-08 13:27 | 5.34893 | 100.62840 | 13985 ft | 361 kts | 79° |
| 2026-05-08 13:27 | 5.35353 | 100.65330 | 14540 ft | 364 kts | 79° |
| 2026-05-08 13:28 | 5.35813 | 100.67835 | 15085 ft | 367 kts | 79° |
| 2026-05-08 13:28 | 5.36277 | 100.70362 | 15626 ft | 369 kts | 79° |
| 2026-05-08 13:28 | 5.36742 | 100.72901 | 16174 ft | 371 kts | 79° |
| 2026-05-08 13:28 | 5.37209 | 100.75456 | 16708 ft | 374 kts | 79° |
| 2026-05-08 13:29 | 5.37681 | 100.78034 | 17243 ft | 376 kts | 79° |
| 2026-05-08 13:29 | 5.38159 | 100.80630 | 17771 ft | 378 kts | 79° |
| 2026-05-08 13:29 | 5.38641 | 100.83233 | 18276 ft | 381 kts | 79° |
| 2026-05-08 13:29 | 5.39124 | 100.85854 | 18718 ft | 383 kts | 79° |
| 2026-05-08 13:30 | 5.39580 | 100.88492 | 19149 ft | 385 kts | 84° |
| 2026-05-08 13:30 | 5.39481 | 100.91183 | 19575 ft | 389 kts | 101° |
| 2026-05-08 13:30 | 5.38561 | 100.93741 | 19995 ft | 394 kts | 118° |
| 2026-05-08 13:30 | 5.36899 | 100.95893 | 20405 ft | 400 kts | 136° |
| 2026-05-08 13:31 | 5.34551 | 100.97481 | 20823 ft | 407 kts | 154° |
| 2026-05-08 13:31 | 5.31845 | 100.98238 | 21232 ft | 414 kts | 172° |
| 2026-05-08 13:31 | 5.28950 | 100.98075 | 21638 ft | 422 kts | 192° |
| 2026-05-08 13:31 | 5.26208 | 100.96992 | 22017 ft | 428 kts | 205° |
| 2026-05-08 13:32 | 5.23548 | 100.95618 | 22423 ft | 430 kts | 206° |
| 2026-05-08 13:32 | 5.20883 | 100.94228 | 22868 ft | 431 kts | 206° |
| 2026-05-08 13:32 | 5.18218 | 100.92833 | 23288 ft | 433 kts | 206° |
| 2026-05-08 13:32 | 5.15539 | 100.91434 | 23634 ft | 435 kts | 205° |
| 2026-05-08 13:33 | 5.12846 | 100.90033 | 23935 ft | 437 kts | 205° |
| 2026-05-08 13:33 | 5.10138 | 100.88631 | 24229 ft | 439 kts | 205° |
| 2026-05-08 13:33 | 5.07417 | 100.87225 | 24529 ft | 441 kts | 205° |
| 2026-05-08 13:33 | 5.04676 | 100.85808 | 24808 ft | 443 kts | 205° |
| 2026-05-08 13:34 | 5.01932 | 100.84388 | 25097 ft | 445 kts | 205° |
| 2026-05-08 13:34 | 4.99139 | 100.83134 | 25364 ft | 446 kts | 197° |
| 2026-05-08 13:34 | 4.96144 | 100.82359 | 25626 ft | 445 kts | 187° |
| 2026-05-08 13:34 | 4.93023 | 100.82128 | 25885 ft | 444 kts | 176° |
| 2026-05-08 13:35 | 4.89983 | 100.82430 | 26136 ft | 444 kts | 169° |
| 2026-05-08 13:35 | 4.86920 | 100.82926 | 26386 ft | 446 kts | 169° |
| 2026-05-08 13:35 | 4.83844 | 100.83417 | 26653 ft | 448 kts | 168° |
| 2026-05-08 13:35 | 4.80760 | 100.83903 | 26929 ft | 450 kts | 169° |
| 2026-05-08 13:36 | 4.77662 | 100.84389 | 27181 ft | 451 kts | 169° |
| 2026-05-08 13:36 | 4.74549 | 100.84876 | 27429 ft | 453 kts | 169° |
| 2026-05-08 13:36 | 4.71422 | 100.85368 | 27664 ft | 455 kts | 168° |
| 2026-05-08 13:36 | 4.68288 | 100.85865 | 27915 ft | 457 kts | 168° |
| 2026-05-08 13:37 | 4.65139 | 100.86367 | 28154 ft | 459 kts | 168° |
| 2026-05-08 13:37 | 4.61986 | 100.86868 | 28393 ft | 460 kts | 168° |
| 2026-05-08 13:37 | 4.58812 | 100.87369 | 28617 ft | 462 kts | 169° |
| 2026-05-08 13:37 | 4.55629 | 100.87870 | 28828 ft | 464 kts | 169° |
| 2026-05-08 13:38 | 4.52435 | 100.88373 | 29041 ft | 466 kts | 169° |
| 2026-05-08 13:38 | 4.49268 | 100.88873 | 29238 ft | 467 kts | 168° |
| 2026-05-08 13:38 | 4.46103 | 100.89574 | 29427 ft | 466 kts | 160° |
| 2026-05-08 13:38 | 4.43090 | 100.90761 | 29622 ft | 465 kts | 152° |